sensor_id;sensor_type;location;lat;lon;timestamp;temperature;humidity
2767;DHT22;1391;46.742;11.636;2023-02-12T00:01:20;-1.50;69.20
2767;DHT22;1391;46.742;11.636;2023-02-12T00:03:48;-1.20;69.00
2767;DHT22;1391;46.742;11.636;2023-02-12T00:06:16;-1.40;68.00
2767;DHT22;1391;46.742;11.636;2023-02-12T00:08:43;-1.20;68.30
2767;DHT22;1391;46.742;11.636;2023-02-12T00:11:12;-1.30;69.10
2767;DHT22;1391;46.742;11.636;2023-02-12T00:13:41;-1.20;69.10
2767;DHT22;1391;46.742;11.636;2023-02-12T00:16:11;-1.20;68.30
2767;DHT22;1391;46.742;11.636;2023-02-12T00:18:39;-1.30;68.20
2767;DHT22;1391;46.742;11.636;2023-02-12T00:21:07;-1.20;69.80
2767;DHT22;1391;46.742;11.636;2023-02-12T00:23:35;-1.90;70.50
2767;DHT22;1391;46.742;11.636;2023-02-12T00:26:05;-1.20;72.50
2767;DHT22;1391;46.742;11.636;2023-02-12T00:28:32;-1.40;71.10
2767;DHT22;1391;46.742;11.636;2023-02-12T00:31:04;-1.40;72.80
2767;DHT22;1391;46.742;11.636;2023-02-12T00:33:33;-1.20;71.70
2767;DHT22;1391;46.742;11.636;2023-02-12T00:36:00;-1.30;70.90
2767;DHT22;1391;46.742;11.636;2023-02-12T00:38:28;-1.20;71.20
2767;DHT22;1391;46.742;11.636;2023-02-12T00:40:55;-1.80;69.30
2767;DHT22;1391;46.742;11.636;2023-02-12T00:43:22;-1.90;69.60
2767;DHT22;1391;46.742;11.636;2023-02-12T00:45:50;-1.90;71.10
2767;DHT22;1391;46.742;11.636;2023-02-12T00:48:17;-1.50;71.90
2767;DHT22;1391;46.742;11.636;2023-02-12T00:50:47;-1.50;72.30
2767;DHT22;1391;46.742;11.636;2023-02-12T00:53:14;-1.30;72.30
2767;DHT22;1391;46.742;11.636;2023-02-12T00:55:42;-1.50;71.90
2767;DHT22;1391;46.742;11.636;2023-02-12T00:58:09;-1.50;71.90
2767;DHT22;1391;46.742;11.636;2023-02-12T01:00:36;-1.70;73.40
2767;DHT22;1391;46.742;11.636;2023-02-12T01:03:04;-1.50;74.20
2767;DHT22;1391;46.742;11.636;2023-02-12T01:05:31;-1.40;72.90
2767;DHT22;1391;46.742;11.636;2023-02-12T01:08:00;-1.50;73.00
2767;DHT22;1391;46.742;11.636;2023-02-12T01:10:28;-1.70;73.10
2767;DHT22;1391;46.742;11.636;2023-02-12T01:12:55;-1.40;73.80
2767;DHT22;1391;46.742;11.636;2023-02-12T01:15:23;-1.30;72.50
2767;DHT22;1391;46.742;11.636;2023-02-12T01:17:50;-1.50;73.00
2767;DHT22;1391;46.742;11.636;2023-02-12T01:20:20;-1.70;73.80
2767;DHT22;1391;46.742;11.636;2023-02-12T01:22:49;-1.90;73.00
2767;DHT22;1391;46.742;11.636;2023-02-12T01:25:18;-1.70;74.20
2767;DHT22;1391;46.742;11.636;2023-02-12T01:27:46;-1.90;72.60
2767;DHT22;1391;46.742;11.636;2023-02-12T01:30:14;-1.80;73.80
2767;DHT22;1391;46.742;11.636;2023-02-12T01:32:42;-1.90;74.00
2767;DHT22;1391;46.742;11.636;2023-02-12T01:35:09;-1.30;73.60
2767;DHT22;1391;46.742;11.636;2023-02-12T01:37:37;-1.30;72.80
2767;DHT22;1391;46.742;11.636;2023-02-12T01:40:06;-1.60;71.90
2767;DHT22;1391;46.742;11.636;2023-02-12T01:42:36;-2.10;73.00
2767;DHT22;1391;46.742;11.636;2023-02-12T01:45:48;-1.90;75.30
2767;DHT22;1391;46.742;11.636;2023-02-12T01:48:21;-2.20;74.60
2767;DHT22;1391;46.742;11.636;2023-02-12T01:50:50;-1.90;75.30
2767;DHT22;1391;46.742;11.636;2023-02-12T01:53:19;-2.10;73.50
2767;DHT22;1391;46.742;11.636;2023-02-12T01:55:49;-1.90;74.00
2767;DHT22;1391;46.742;11.636;2023-02-12T01:58:21;-2.20;77.40
2767;DHT22;1391;46.742;11.636;2023-02-12T02:00:49;-1.50;78.80
2767;DHT22;1391;46.742;11.636;2023-02-12T02:03:17;-2.10;76.80
2767;DHT22;1391;46.742;11.636;2023-02-12T02:05:48;-2.20;78.90
2767;DHT22;1391;46.742;11.636;2023-02-12T02:08:20;-2.20;79.00
2767;DHT22;1391;46.742;11.636;2023-02-12T02:10:47;-1.60;79.70
2767;DHT22;1391;46.742;11.636;2023-02-12T02:13:14;-1.80;78.90
2767;DHT22;1391;46.742;11.636;2023-02-12T02:16:08;-1.20;79.50
2767;DHT22;1391;46.742;11.636;2023-02-12T02:18:43;-1.30;77.30
2767;DHT22;1391;46.742;11.636;2023-02-12T02:21:45;-1.20;76.30
2767;DHT22;1391;46.742;11.636;2023-02-12T02:24:44;-1.30;76.80
2767;DHT22;1391;46.742;11.636;2023-02-12T02:27:24;-2.10;76.50
2767;DHT22;1391;46.742;11.636;2023-02-12T02:30:22;-1.60;77.70
2767;DHT22;1391;46.742;11.636;2023-02-12T02:33:15;-1.80;77.40
2767;DHT22;1391;46.742;11.636;2023-02-12T02:35:54;-2.10;78.30
2767;DHT22;1391;46.742;11.636;2023-02-12T02:38:35;-1.70;78.40
2767;DHT22;1391;46.742;11.636;2023-02-12T02:41:08;-1.70;78.30
2767;DHT22;1391;46.742;11.636;2023-02-12T02:43:46;-2.20;78.20
2767;DHT22;1391;46.742;11.636;2023-02-12T02:46:19;-2.20;78.90
2767;DHT22;1391;46.742;11.636;2023-02-12T02:48:53;-2.10;79.80
2767;DHT22;1391;46.742;11.636;2023-02-12T02:51:27;-2.20;81.10
2767;DHT22;1391;46.742;11.636;2023-02-12T02:54:02;-2.10;81.20
2767;DHT22;1391;46.742;11.636;2023-02-12T02:56:34;-2.10;80.00
2767;DHT22;1391;46.742;11.636;2023-02-12T02:59:05;-1.80;81.30
2767;DHT22;1391;46.742;11.636;2023-02-12T03:01:39;-2.00;81.50
2767;DHT22;1391;46.742;11.636;2023-02-12T03:04:12;-2.10;81.60
2767;DHT22;1391;46.742;11.636;2023-02-12T03:06:46;-1.90;80.10
2767;DHT22;1391;46.742;11.636;2023-02-12T03:09:21;-2.20;81.10
2767;DHT22;1391;46.742;11.636;2023-02-12T03:11:51;-1.90;81.90
2767;DHT22;1391;46.742;11.636;2023-02-12T03:14:24;-2.20;80.00
2767;DHT22;1391;46.742;11.636;2023-02-12T03:16:57;-2.00;80.50
2767;DHT22;1391;46.742;11.636;2023-02-12T03:19:29;-2.10;80.40
2767;DHT22;1391;46.742;11.636;2023-02-12T03:22:01;-2.10;82.40
2767;DHT22;1391;46.742;11.636;2023-02-12T03:24:33;-2.00;81.00
2767;DHT22;1391;46.742;11.636;2023-02-12T03:27:06;-1.90;81.40
2767;DHT22;1391;46.742;11.636;2023-02-12T03:29:35;-2.10;84.60
2767;DHT22;1391;46.742;11.636;2023-02-12T03:35:08;-1.80;81.90
2767;DHT22;1391;46.742;11.636;2023-02-12T03:37:39;-1.10;83.60
2767;DHT22;1391;46.742;11.636;2023-02-12T03:40:15;-1.20;76.00
2767;DHT22;1391;46.742;11.636;2023-02-12T03:42:46;-1.10;76.20
2767;DHT22;1391;46.742;11.636;2023-02-12T03:45:25;-1.00;76.70
2767;DHT22;1391;46.742;11.636;2023-02-12T03:48:01;-1.20;76.00
2767;DHT22;1391;46.742;11.636;2023-02-12T03:50:38;-1.20;80.00
2767;DHT22;1391;46.742;11.636;2023-02-12T03:53:11;-1.10;79.00
2767;DHT22;1391;46.742;11.636;2023-02-12T03:55:41;-0.30;77.10
2767;DHT22;1391;46.742;11.636;2023-02-12T03:58:16;0.40;71.90
2767;DHT22;1391;46.742;11.636;2023-02-12T04:00:46;0.40;67.20
2767;DHT22;1391;46.742;11.636;2023-02-12T04:03:15;-0.50;67.30
2767;DHT22;1391;46.742;11.636;2023-02-12T04:05:42;-0.70;69.00
2767;DHT22;1391;46.742;11.636;2023-02-12T04:08:10;-0.60;69.80
2767;DHT22;1391;46.742;11.636;2023-02-12T04:10:45;-1.00;69.80
2767;DHT22;1391;46.742;11.636;2023-02-12T04:13:23;-1.10;70.50
2767;DHT22;1391;46.742;11.636;2023-02-12T04:16:06;-1.20;70.70
2767;DHT22;1391;46.742;11.636;2023-02-12T04:18:45;-2.00;74.00
2767;DHT22;1391;46.742;11.636;2023-02-12T04:21:22;-1.90;76.10
2767;DHT22;1391;46.742;11.636;2023-02-12T04:24:04;-1.70;76.70
2767;DHT22;1391;46.742;11.636;2023-02-12T04:26:36;-1.40;77.60
2767;DHT22;1391;46.742;11.636;2023-02-12T04:29:12;-1.20;77.90
2767;DHT22;1391;46.742;11.636;2023-02-12T04:31:47;-1.40;77.50
2767;DHT22;1391;46.742;11.636;2023-02-12T04:34:21;-1.90;76.90
2767;DHT22;1391;46.742;11.636;2023-02-12T04:36:56;-1.90;75.90
2767;DHT22;1391;46.742;11.636;2023-02-12T04:39:27;-1.50;77.90
2767;DHT22;1391;46.742;11.636;2023-02-12T04:41:57;-1.80;78.90
2767;DHT22;1391;46.742;11.636;2023-02-12T04:44:28;-2.10;80.90
2767;DHT22;1391;46.742;11.636;2023-02-12T04:46:56;-2.00;82.30
2767;DHT22;1391;46.742;11.636;2023-02-12T04:49:25;-1.60;83.00
2767;DHT22;1391;46.742;11.636;2023-02-12T04:51:53;-2.10;80.70
2767;DHT22;1391;46.742;11.636;2023-02-12T04:54:21;-2.50;79.10
2767;DHT22;1391;46.742;11.636;2023-02-12T04:56:49;-2.70;82.40
2767;DHT22;1391;46.742;11.636;2023-02-12T04:59:17;-2.40;84.80
2767;DHT22;1391;46.742;11.636;2023-02-12T05:01:44;-2.30;85.60
2767;DHT22;1391;46.742;11.636;2023-02-12T05:04:13;-2.40;84.40
2767;DHT22;1391;46.742;11.636;2023-02-12T05:06:44;-2.40;85.30
2767;DHT22;1391;46.742;11.636;2023-02-12T05:09:14;-2.20;85.20
2767;DHT22;1391;46.742;11.636;2023-02-12T05:11:42;-2.40;85.80
2767;DHT22;1391;46.742;11.636;2023-02-12T05:14:10;-2.40;84.80
2767;DHT22;1391;46.742;11.636;2023-02-12T05:16:37;-2.20;85.70
2767;DHT22;1391;46.742;11.636;2023-02-12T05:19:05;-2.60;85.20
2767;DHT22;1391;46.742;11.636;2023-02-12T05:21:34;-2.40;89.70
2767;DHT22;1391;46.742;11.636;2023-02-12T05:24:03;-1.80;90.20
2767;DHT22;1391;46.742;11.636;2023-02-12T05:26:31;-2.20;88.00
2767;DHT22;1391;46.742;11.636;2023-02-12T05:28:59;-2.50;89.00
2767;DHT22;1391;46.742;11.636;2023-02-12T05:31:28;-2.30;90.00
2767;DHT22;1391;46.742;11.636;2023-02-12T05:33:55;-2.40;90.00
2767;DHT22;1391;46.742;11.636;2023-02-12T05:36:23;-2.00;91.80
2767;DHT22;1391;46.742;11.636;2023-02-12T05:38:51;-2.00;90.70
2767;DHT22;1391;46.742;11.636;2023-02-12T05:41:22;-1.90;90.30
2767;DHT22;1391;46.742;11.636;2023-02-12T05:43:50;-2.20;89.90
2767;DHT22;1391;46.742;11.636;2023-02-12T05:46:18;-1.90;89.80
2767;DHT22;1391;46.742;11.636;2023-02-12T05:48:46;-1.60;87.00
2767;DHT22;1391;46.742;11.636;2023-02-12T05:51:15;-2.10;86.60
2767;DHT22;1391;46.742;11.636;2023-02-12T05:53:44;-1.70;87.00
2767;DHT22;1391;46.742;11.636;2023-02-12T05:56:13;-2.20;87.60
2767;DHT22;1391;46.742;11.636;2023-02-12T05:58:44;-2.10;87.90
2767;DHT22;1391;46.742;11.636;2023-02-12T06:01:16;-2.20;86.50
2767;DHT22;1391;46.742;11.636;2023-02-12T06:03:44;-2.40;86.70
2767;DHT22;1391;46.742;11.636;2023-02-12T06:06:12;-2.40;86.70
2767;DHT22;1391;46.742;11.636;2023-02-12T06:08:39;-2.40;87.50
2767;DHT22;1391;46.742;11.636;2023-02-12T06:11:09;-2.20;88.30
2767;DHT22;1391;46.742;11.636;2023-02-12T06:13:38;-2.00;89.20
2767;DHT22;1391;46.742;11.636;2023-02-12T06:16:16;-2.20;89.30
2767;DHT22;1391;46.742;11.636;2023-02-12T06:18:44;-2.20;89.20
2767;DHT22;1391;46.742;11.636;2023-02-12T06:21:11;-2.10;89.90
2767;DHT22;1391;46.742;11.636;2023-02-12T06:23:39;-2.20;89.20
2767;DHT22;1391;46.742;11.636;2023-02-12T06:26:06;-1.50;90.00
2767;DHT22;1391;46.742;11.636;2023-02-12T06:28:33;-1.90;89.20
2767;DHT22;1391;46.742;11.636;2023-02-12T06:31:01;-2.20;87.50
2767;DHT22;1391;46.742;11.636;2023-02-12T06:33:30;-2.10;90.10
2767;DHT22;1391;46.742;11.636;2023-02-12T06:35:57;-2.10;90.70
2767;DHT22;1391;46.742;11.636;2023-02-12T06:38:24;-1.50;90.70
2767;DHT22;1391;46.742;11.636;2023-02-12T06:40:52;-1.50;89.90
2767;DHT22;1391;46.742;11.636;2023-02-12T06:43:19;-1.40;87.20
2767;DHT22;1391;46.742;11.636;2023-02-12T06:45:46;-1.00;86.70
2767;DHT22;1391;46.742;11.636;2023-02-12T06:48:13;-1.40;85.10
2767;DHT22;1391;46.742;11.636;2023-02-12T06:50:42;-1.30;86.50
2767;DHT22;1391;46.742;11.636;2023-02-12T06:53:09;-1.20;86.30
2767;DHT22;1391;46.742;11.636;2023-02-12T06:55:36;-1.00;86.40
2767;DHT22;1391;46.742;11.636;2023-02-12T06:58:04;-1.20;86.00
2767;DHT22;1391;46.742;11.636;2023-02-12T07:00:31;-1.00;86.00
2767;DHT22;1391;46.742;11.636;2023-02-12T07:02:58;-1.30;85.10
2767;DHT22;1391;46.742;11.636;2023-02-12T07:05:25;-0.90;85.80
2767;DHT22;1391;46.742;11.636;2023-02-12T07:07:54;-1.20;86.00
2767;DHT22;1391;46.742;11.636;2023-02-12T07:10:21;-1.00;87.80
2767;DHT22;1391;46.742;11.636;2023-02-12T07:12:48;-1.00;89.00
2767;DHT22;1391;46.742;11.636;2023-02-12T07:15:16;-1.30;88.50
2767;DHT22;1391;46.742;11.636;2023-02-12T07:17:44;-0.80;88.90
2767;DHT22;1391;46.742;11.636;2023-02-12T07:20:12;-0.90;89.70
2767;DHT22;1391;46.742;11.636;2023-02-12T07:22:39;-1.00;90.00
2767;DHT22;1391;46.742;11.636;2023-02-12T07:25:08;-0.90;89.90
2767;DHT22;1391;46.742;11.636;2023-02-12T07:27:36;-0.90;89.70
2767;DHT22;1391;46.742;11.636;2023-02-12T07:30:05;-0.70;88.30
2767;DHT22;1391;46.742;11.636;2023-02-12T07:32:34;-0.60;87.50
2767;DHT22;1391;46.742;11.636;2023-02-12T07:35:02;-0.70;87.50
2767;DHT22;1391;46.742;11.636;2023-02-12T07:37:29;-0.90;86.50
2767;DHT22;1391;46.742;11.636;2023-02-12T07:39:57;-0.70;86.70
2767;DHT22;1391;46.742;11.636;2023-02-12T07:42:25;-0.80;86.60
2767;DHT22;1391;46.742;11.636;2023-02-12T07:44:53;-0.40;86.70
2767;DHT22;1391;46.742;11.636;2023-02-12T07:47:21;-0.40;86.90
2767;DHT22;1391;46.742;11.636;2023-02-12T07:49:48;-0.40;86.40
2767;DHT22;1391;46.742;11.636;2023-02-12T07:52:15;-0.60;85.30
2767;DHT22;1391;46.742;11.636;2023-02-12T07:54:43;-0.50;86.20
2767;DHT22;1391;46.742;11.636;2023-02-12T07:57:10;-0.70;86.60
2767;DHT22;1391;46.742;11.636;2023-02-12T07:59:41;-0.50;87.10
2767;DHT22;1391;46.742;11.636;2023-02-12T08:02:08;-0.30;87.50
2767;DHT22;1391;46.742;11.636;2023-02-12T08:04:36;-0.60;84.40
2767;DHT22;1391;46.742;11.636;2023-02-12T08:07:03;-0.40;86.40
2767;DHT22;1391;46.742;11.636;2023-02-12T08:09:30;-0.30;86.60
2767;DHT22;1391;46.742;11.636;2023-02-12T08:11:57;-0.20;86.20
2767;DHT22;1391;46.742;11.636;2023-02-12T08:14:25;0.30;86.10
2767;DHT22;1391;46.742;11.636;2023-02-12T08:16:54;0.00;85.10
2767;DHT22;1391;46.742;11.636;2023-02-12T08:19:22;0.70;85.20
2767;DHT22;1391;46.742;11.636;2023-02-12T08:21:49;1.50;80.90
2767;DHT22;1391;46.742;11.636;2023-02-12T08:24:17;2.20;77.80
2767;DHT22;1391;46.742;11.636;2023-02-12T08:26:46;2.80;70.40
2767;DHT22;1391;46.742;11.636;2023-02-12T08:29:15;3.80;69.30
2767;DHT22;1391;46.742;11.636;2023-02-12T08:31:45;4.00;67.00
2767;DHT22;1391;46.742;11.636;2023-02-12T08:34:17;3.90;57.00
2767;DHT22;1391;46.742;11.636;2023-02-12T08:36:47;4.00;53.60
2767;DHT22;1391;46.742;11.636;2023-02-12T08:39:16;4.30;55.00
2767;DHT22;1391;46.742;11.636;2023-02-12T08:41:44;4.20;50.20
2767;DHT22;1391;46.742;11.636;2023-02-12T08:44:12;4.70;49.80
2767;DHT22;1391;46.742;11.636;2023-02-12T08:46:43;4.70;47.70
2767;DHT22;1391;46.742;11.636;2023-02-12T08:49:13;4.80;48.80
2767;DHT22;1391;46.742;11.636;2023-02-12T08:51:43;4.70;48.10
2767;DHT22;1391;46.742;11.636;2023-02-12T08:54:15;5.80;48.50
2767;DHT22;1391;46.742;11.636;2023-02-12T08:56:44;5.90;44.90
2767;DHT22;1391;46.742;11.636;2023-02-12T08:59:13;5.90;46.30
2767;DHT22;1391;46.742;11.636;2023-02-12T09:01:41;6.50;45.40
2767;DHT22;1391;46.742;11.636;2023-02-12T09:04:13;6.50;39.80
2767;DHT22;1391;46.742;11.636;2023-02-12T09:06:45;6.30;40.20
2767;DHT22;1391;46.742;11.636;2023-02-12T09:09:12;7.40;40.50
2767;DHT22;1391;46.742;11.636;2023-02-12T09:11:40;7.50;35.70
2767;DHT22;1391;46.742;11.636;2023-02-12T09:14:11;7.40;36.10
2767;DHT22;1391;46.742;11.636;2023-02-12T09:16:39;7.50;34.00
2767;DHT22;1391;46.742;11.636;2023-02-12T09:19:07;8.00;33.90
2767;DHT22;1391;46.742;11.636;2023-02-12T09:21:36;8.00;33.00
2767;DHT22;1391;46.742;11.636;2023-02-12T09:24:05;7.80;34.10
2767;DHT22;1391;46.742;11.636;2023-02-12T09:26:33;7.70;37.00
2767;DHT22;1391;46.742;11.636;2023-02-12T09:29:01;7.20;38.10
2767;DHT22;1391;46.742;11.636;2023-02-12T09:31:30;6.90;37.20
2767;DHT22;1391;46.742;11.636;2023-02-12T09:34:00;7.40;37.80
2767;DHT22;1391;46.742;11.636;2023-02-12T09:36:28;7.80;34.80
2767;DHT22;1391;46.742;11.636;2023-02-12T09:38:56;7.80;33.80
2767;DHT22;1391;46.742;11.636;2023-02-12T09:44:43;8.10;33.70
2767;DHT22;1391;46.742;11.636;2023-02-12T09:47:16;8.10;33.00
2767;DHT22;1391;46.742;11.636;2023-02-12T09:50:05;8.30;32.10
2767;DHT22;1391;46.742;11.636;2023-02-12T09:52:39;8.10;32.00
2767;DHT22;1391;46.742;11.636;2023-02-12T09:55:10;8.10;32.10
2767;DHT22;1391;46.742;11.636;2023-02-12T09:57:41;8.30;32.90
2767;DHT22;1391;46.742;11.636;2023-02-12T10:00:13;8.10;30.30
2767;DHT22;1391;46.742;11.636;2023-02-12T10:02:42;8.60;29.30
2767;DHT22;1391;46.742;11.636;2023-02-12T10:05:15;8.90;29.40
2767;DHT22;1391;46.742;11.636;2023-02-12T10:07:58;8.70;29.30
2767;DHT22;1391;46.742;11.636;2023-02-12T10:10:50;8.60;28.70
2767;DHT22;1391;46.742;11.636;2023-02-12T10:13:38;9.40;29.10
2767;DHT22;1391;46.742;11.636;2023-02-12T10:16:15;9.40;27.80
2767;DHT22;1391;46.742;11.636;2023-02-12T10:19:13;9.40;27.30
2767;DHT22;1391;46.742;11.636;2023-02-12T10:21:57;9.70;28.10
2767;DHT22;1391;46.742;11.636;2023-02-12T10:24:47;10.30;25.30
2767;DHT22;1391;46.742;11.636;2023-02-12T10:27:31;10.30;24.00
2767;DHT22;1391;46.742;11.636;2023-02-12T10:30:13;11.10;23.00
2767;DHT22;1391;46.742;11.636;2023-02-12T10:32:45;11.60;22.60
2767;DHT22;1391;46.742;11.636;2023-02-12T10:35:16;12.10;21.30
2767;DHT22;1391;46.742;11.636;2023-02-12T10:37:49;12.00;20.90
2767;DHT22;1391;46.742;11.636;2023-02-12T10:40:23;12.20;19.80
2767;DHT22;1391;46.742;11.636;2023-02-12T10:42:53;12.30;20.70
2767;DHT22;1391;46.742;11.636;2023-02-12T10:45:25;12.60;20.90
2767;DHT22;1391;46.742;11.636;2023-02-12T10:48:04;11.80;21.20
2767;DHT22;1391;46.742;11.636;2023-02-12T10:50:49;12.00;21.00
2767;DHT22;1391;46.742;11.636;2023-02-12T10:53:25;11.90;20.30
2767;DHT22;1391;46.742;11.636;2023-02-12T10:56:14;11.40;20.90
2767;DHT22;1391;46.742;11.636;2023-02-12T10:58:52;11.50;21.10
2767;DHT22;1391;46.742;11.636;2023-02-12T11:01:25;11.70;21.30
2767;DHT22;1391;46.742;11.636;2023-02-12T11:03:55;12.20;20.30
2767;DHT22;1391;46.742;11.636;2023-02-12T11:06:25;12.10;19.10
2767;DHT22;1391;46.742;11.636;2023-02-12T11:08:55;12.10;19.80
2767;DHT22;1391;46.742;11.636;2023-02-12T11:11:25;12.50;18.80
2767;DHT22;1391;46.742;11.636;2023-02-12T11:13:55;12.60;18.60
2767;DHT22;1391;46.742;11.636;2023-02-12T11:16:30;12.60;18.10
2767;DHT22;1391;46.742;11.636;2023-02-12T11:19:00;13.00;18.40
2767;DHT22;1391;46.742;11.636;2023-02-12T11:21:30;13.00;18.20
2767;DHT22;1391;46.742;11.636;2023-02-12T11:24:20;13.00;18.30
2767;DHT22;1391;46.742;11.636;2023-02-12T11:27:21;13.30;17.90
2767;DHT22;1391;46.742;11.636;2023-02-12T11:30:12;13.00;17.60
2767;DHT22;1391;46.742;11.636;2023-02-12T11:32:43;13.10;17.70
2767;DHT22;1391;46.742;11.636;2023-02-12T11:35:14;13.00;18.40
2767;DHT22;1391;46.742;11.636;2023-02-12T11:37:49;13.00;18.00
2767;DHT22;1391;46.742;11.636;2023-02-12T11:40:21;13.30;17.10
2767;DHT22;1391;46.742;11.636;2023-02-12T11:42:52;13.40;16.90
2767;DHT22;1391;46.742;11.636;2023-02-12T11:45:23;13.60;16.30
2767;DHT22;1391;46.742;11.636;2023-02-12T11:47:53;13.00;16.90
2767;DHT22;1391;46.742;11.636;2023-02-12T11:50:25;13.70;16.10
2767;DHT22;1391;46.742;11.636;2023-02-12T11:52:58;14.00;15.60
2767;DHT22;1391;46.742;11.636;2023-02-12T11:55:28;14.30;16.30
2767;DHT22;1391;46.742;11.636;2023-02-12T11:58:02;14.20;15.00
2767;DHT22;1391;46.742;11.636;2023-02-12T12:00:34;14.90;14.30
2767;DHT22;1391;46.742;11.636;2023-02-12T12:03:11;14.60;14.50
2767;DHT22;1391;46.742;11.636;2023-02-12T12:05:44;14.10;13.80
2767;DHT22;1391;46.742;11.636;2023-02-12T12:08:20;14.40;14.70
2767;DHT22;1391;46.742;11.636;2023-02-12T12:10:55;14.90;15.20
2767;DHT22;1391;46.742;11.636;2023-02-12T12:13:29;14.70;14.60
2767;DHT22;1391;46.742;11.636;2023-02-12T12:16:05;15.60;14.60
2767;DHT22;1391;46.742;11.636;2023-02-12T12:18:57;15.50;14.40
2767;DHT22;1391;46.742;11.636;2023-02-12T12:21:49;14.70;14.10
2767;DHT22;1391;46.742;11.636;2023-02-12T12:24:25;15.60;14.30
2767;DHT22;1391;46.742;11.636;2023-02-12T12:27:01;15.50;12.70
2767;DHT22;1391;46.742;11.636;2023-02-12T12:29:45;15.10;12.90
2767;DHT22;1391;46.742;11.636;2023-02-12T12:32:18;15.20;13.60
2767;DHT22;1391;46.742;11.636;2023-02-12T12:34:48;15.60;14.10
2767;DHT22;1391;46.742;11.636;2023-02-12T12:37:28;15.60;14.00
2767;DHT22;1391;46.742;11.636;2023-02-12T12:40:15;16.00;13.90
2767;DHT22;1391;46.742;11.636;2023-02-12T12:43:07;15.20;12.90
2767;DHT22;1391;46.742;11.636;2023-02-12T12:46:10;15.30;13.70
2767;DHT22;1391;46.742;11.636;2023-02-12T12:48:57;15.30;14.00
2767;DHT22;1391;46.742;11.636;2023-02-12T12:52:07;14.90;14.40
2767;DHT22;1391;46.742;11.636;2023-02-12T12:54:54;14.40;15.20
2767;DHT22;1391;46.742;11.636;2023-02-12T12:57:42;14.60;15.60
2767;DHT22;1391;46.742;11.636;2023-02-12T13:00:34;14.80;15.20
2767;DHT22;1391;46.742;11.636;2023-02-12T13:03:39;14.50;14.90
2767;DHT22;1391;46.742;11.636;2023-02-12T13:06:35;14.60;15.60
2767;DHT22;1391;46.742;11.636;2023-02-12T13:09:32;14.80;16.10
2767;DHT22;1391;46.742;11.636;2023-02-12T13:12:31;14.90;16.10
2767;DHT22;1391;46.742;11.636;2023-02-12T13:15:06;14.90;16.00
2767;DHT22;1391;46.742;11.636;2023-02-12T13:17:42;14.50;15.80
2767;DHT22;1391;46.742;11.636;2023-02-12T13:20:18;14.60;15.80
2767;DHT22;1391;46.742;11.636;2023-02-12T13:22:54;14.40;15.90
2767;DHT22;1391;46.742;11.636;2023-02-12T13:25:30;14.70;16.50
2767;DHT22;1391;46.742;11.636;2023-02-12T13:28:02;14.20;15.80
2767;DHT22;1391;46.742;11.636;2023-02-12T13:34:20;14.00;15.60
2767;DHT22;1391;46.742;11.636;2023-02-12T13:37:23;14.10;15.90
2767;DHT22;1391;46.742;11.636;2023-02-12T13:40:14;14.30;15.80
2767;DHT22;1391;46.742;11.636;2023-02-12T13:42:48;14.30;16.80
2767;DHT22;1391;46.742;11.636;2023-02-12T13:45:27;13.50;16.90
2767;DHT22;1391;46.742;11.636;2023-02-12T13:48:15;13.90;16.90
2767;DHT22;1391;46.742;11.636;2023-02-12T13:51:06;13.70;17.50
2767;DHT22;1391;46.742;11.636;2023-02-12T13:53:50;13.60;16.50
2767;DHT22;1391;46.742;11.636;2023-02-12T13:56:32;13.40;17.00
2767;DHT22;1391;46.742;11.636;2023-02-12T13:59:45;13.10;18.60
2767;DHT22;1391;46.742;11.636;2023-02-12T14:05:20;12.90;18.80
2767;DHT22;1391;46.742;11.636;2023-02-12T14:07:51;12.90;18.10
2767;DHT22;1391;46.742;11.636;2023-02-12T14:10:25;13.00;18.40
2767;DHT22;1391;46.742;11.636;2023-02-12T14:12:58;12.70;19.10
2767;DHT22;1391;46.742;11.636;2023-02-12T14:15:40;12.50;18.20
2767;DHT22;1391;46.742;11.636;2023-02-12T14:18:27;13.10;18.30
2767;DHT22;1391;46.742;11.636;2023-02-12T14:27:32;12.60;19.50
2767;DHT22;1391;46.742;11.636;2023-02-12T14:30:30;12.00;19.70
2767;DHT22;1391;46.742;11.636;2023-02-12T14:33:25;11.90;20.60
2767;DHT22;1391;46.742;11.636;2023-02-12T14:36:28;12.10;21.20
2767;DHT22;1391;46.742;11.636;2023-02-12T14:39:26;11.50;20.60
2767;DHT22;1391;46.742;11.636;2023-02-12T14:41:55;11.60;21.90
2767;DHT22;1391;46.742;11.636;2023-02-12T14:45:01;11.30;22.10
2767;DHT22;1391;46.742;11.636;2023-02-12T14:47:50;11.10;21.50
2767;DHT22;1391;46.742;11.636;2023-02-12T14:50:28;11.30;22.20
2767;DHT22;1391;46.742;11.636;2023-02-12T14:53:11;11.00;22.10
2767;DHT22;1391;46.742;11.636;2023-02-12T14:55:48;10.90;22.40
2767;DHT22;1391;46.742;11.636;2023-02-12T14:58:19;11.30;22.90
2767;DHT22;1391;46.742;11.636;2023-02-12T15:00:48;11.20;23.20
2767;DHT22;1391;46.742;11.636;2023-02-12T15:03:21;10.90;22.30
2767;DHT22;1391;46.742;11.636;2023-02-12T15:06:01;11.00;22.30
2767;DHT22;1391;46.742;11.636;2023-02-12T15:08:39;11.70;22.20
2767;DHT22;1391;46.742;11.636;2023-02-12T15:11:19;11.30;22.20
2767;DHT22;1391;46.742;11.636;2023-02-12T15:13:53;10.90;22.50
2767;DHT22;1391;46.742;11.636;2023-02-12T15:16:44;11.20;22.20
2767;DHT22;1391;46.742;11.636;2023-02-12T15:19:22;11.20;22.30
2767;DHT22;1391;46.742;11.636;2023-02-12T15:22:02;10.90;22.30
2767;DHT22;1391;46.742;11.636;2023-02-12T15:24:29;11.00;23.00
2767;DHT22;1391;46.742;11.636;2023-02-12T15:26:58;11.20;23.10
2767;DHT22;1391;46.742;11.636;2023-02-12T15:29:28;11.10;22.10
2767;DHT22;1391;46.742;11.636;2023-02-12T15:32:06;11.00;22.50
2767;DHT22;1391;46.742;11.636;2023-02-12T15:34:36;11.10;22.60
2767;DHT22;1391;46.742;11.636;2023-02-12T15:37:08;11.10;22.90
2767;DHT22;1391;46.742;11.636;2023-02-12T15:39:45;11.00;23.10
2767;DHT22;1391;46.742;11.636;2023-02-12T15:42:27;10.70;23.00
2767;DHT22;1391;46.742;11.636;2023-02-12T15:45:18;10.80;23.40
2767;DHT22;1391;46.742;11.636;2023-02-12T15:48:03;10.80;23.70
2767;DHT22;1391;46.742;11.636;2023-02-12T15:50:46;11.00;23.10
2767;DHT22;1391;46.742;11.636;2023-02-12T15:53:17;10.60;23.10
2767;DHT22;1391;46.742;11.636;2023-02-12T15:55:46;11.10;23.50
2767;DHT22;1391;46.742;11.636;2023-02-12T15:58:20;10.50;23.10
2767;DHT22;1391;46.742;11.636;2023-02-12T16:00:50;10.80;22.90
2767;DHT22;1391;46.742;11.636;2023-02-12T16:03:23;11.20;23.30
2767;DHT22;1391;46.742;11.636;2023-02-12T16:05:52;10.80;22.90
2767;DHT22;1391;46.742;11.636;2023-02-12T16:08:24;10.90;22.50
2767;DHT22;1391;46.742;11.636;2023-02-12T16:10:53;11.20;22.60
2767;DHT22;1391;46.742;11.636;2023-02-12T16:13:27;10.90;22.50
2767;DHT22;1391;46.742;11.636;2023-02-12T16:16:13;11.10;22.70
2767;DHT22;1391;46.742;11.636;2023-02-12T16:18:43;11.10;22.50
2767;DHT22;1391;46.742;11.636;2023-02-12T16:21:19;11.60;21.80
2767;DHT22;1391;46.742;11.636;2023-02-12T16:23:50;11.50;21.70
2767;DHT22;1391;46.742;11.636;2023-02-12T16:26:20;11.50;22.00
2767;DHT22;1391;46.742;11.636;2023-02-12T16:28:52;11.00;22.40
2767;DHT22;1391;46.742;11.636;2023-02-12T16:31:21;10.90;22.80
2767;DHT22;1391;46.742;11.636;2023-02-12T16:33:51;10.80;21.10
2767;DHT22;1391;46.742;11.636;2023-02-12T16:36:30;11.00;21.80
2767;DHT22;1391;46.742;11.636;2023-02-12T16:39:01;11.30;22.70
2767;DHT22;1391;46.742;11.636;2023-02-12T16:41:30;10.50;22.80
2767;DHT22;1391;46.742;11.636;2023-02-12T16:44:23;11.10;23.20
2767;DHT22;1391;46.742;11.636;2023-02-12T16:46:56;10.50;23.70
2767;DHT22;1391;46.742;11.636;2023-02-12T16:49:25;10.70;24.10